Time;durP1;ratioP1;P1;durP2;ratioP2;P2;SDS_P1;SDS_P2;PMS_P1;PMS_P2;Temp;Humidity;BMP_temperature;BMP_pressure;BME280_temperature;BME280_humidity;BME280_pressure;Samples;Min_cycle;Max_cycle;Signal;HPM_P1;HPM_P2
2022/04/02 00:00:05;;;;;;;6.30;3.60;;;4.20;99.90;;;;;;171058;28;1389;-73
2022/04/02 00:00:11;;;;;;;6.42;3.57;;;4.20;99.90;;;;;;171094;28;1540;-72
2022/04/02 00:00:17;;;;;;;6.22;3.60;;;4.20;99.90;;;;;;171199;28;824;-72
2022/04/02 00:00:22;;;;;;;6.10;3.60;;;4.20;99.90;;;;;;171238;28;958;-73
2022/04/02 00:00:28;;;;;;;6.53;3.67;;;4.20;99.90;;;;;;171116;28;904;-73
2022/04/02 00:00:34;;;;;;;6.50;3.67;;;4.20;99.90;;;;;;171663;28;1371;-72
2022/04/02 00:00:40;;;;;;;6.63;3.50;;;4.20;99.90;;;;;;171782;28;895;-72
2022/04/02 00:00:46;;;;;;;6.87;3.50;;;4.20;99.90;;;;;;171732;28;836;-73
2022/04/02 00:00:52;;;;;;;6.53;3.55;;;4.20;99.90;;;;;;170819;28;1491;-73
2022/04/02 00:00:58;;;;;;;6.73;3.53;;;4.20;99.90;;;;;;171164;28;907;-73
2022/04/02 00:01:03;;;;;;;7.25;3.70;;;4.20;99.90;;;;;;171154;28;1370;-73
2022/04/02 00:01:09;;;;;;;7.32;3.80;;;4.20;99.90;;;;;;171194;28;868;-72
2022/04/02 00:01:15;;;;;;;7.47;3.90;;;4.20;99.90;;;;;;171103;28;1417;-74
2022/04/02 00:01:21;;;;;;;7.47;3.90;;;4.20;99.90;;;;;;170740;28;1424;-72
2022/04/02 00:01:27;;;;;;;7.30;4.00;;;4.10;99.90;;;;;;170465;29;887;-73
2022/04/02 00:01:32;;;;;;;7.17;4.00;;;4.20;99.90;;;;;;170451;28;1287;-72
2022/04/02 00:01:41;;;;;;;7.15;4.00;;;4.20;99.90;;;;;;170528;29;908;-73
2022/04/02 00:01:47;;;;;;;7.14;3.96;;;4.20;99.90;;;;;;170541;29;1078;-73
2022/04/02 00:01:53;;;;;;;7.20;4.03;;;4.20;99.90;;;;;;170498;28;1299;-73
2022/04/02 00:01:58;;;;;;;6.57;3.90;;;4.20;99.90;;;;;;171105;28;1243;-72
2022/04/02 00:02:04;;;;;;;6.93;3.85;;;4.10;99.90;;;;;;170423;29;1276;-72
2022/04/02 00:02:10;;;;;;;7.13;3.80;;;4.20;99.90;;;;;;170588;29;820;-72
2022/04/02 00:02:16;;;;;;;7.27;3.77;;;4.20;99.90;;;;;;171190;28;959;-72
2022/04/02 00:02:21;;;;;;;7.53;3.85;;;4.10;99.90;;;;;;169865;29;927;-73
2022/04/02 00:02:27;;;;;;;8.38;3.90;;;4.20;99.90;;;;;;169822;29;995;-73
2022/04/02 00:02:32;;;;;;;8.00;3.90;;;4.20;99.90;;;;;;169114;29;1336;-72
2022/04/02 00:02:39;;;;;;;7.88;3.90;;;4.20;99.90;;;;;;170349;29;1302;-73
2022/04/02 00:02:47;;;;;;;7.63;3.80;;;4.20;99.90;;;;;;169783;29;1561;-73
2022/04/02 00:02:53;;;;;;;7.71;3.77;;;4.10;99.90;;;;;;170429;29;1365;-72
2022/04/02 00:02:58;;;;;;;7.70;4.00;;;4.10;99.90;;;;;;170490;29;924;-72
2022/04/02 00:03:04;;;;;;;7.68;4.00;;;4.20;99.90;;;;;;170478;28;1465;-73
2022/04/02 00:03:10;;;;;;;7.50;4.00;;;4.10;99.90;;;;;;171239;28;848;-72
2022/04/02 00:03:16;;;;;;;7.40;4.05;;;4.10;99.90;;;;;;171111;28;1262;-72
2022/04/02 00:03:22;;;;;;;6.93;4.03;;;4.20;99.90;;;;;;170574;29;915;-72
2022/04/02 00:03:27;;;;;;;6.47;3.97;;;4.10;99.90;;;;;;171095;28;871;-73
2022/04/02 00:03:33;;;;;;;6.55;4.05;;;4.10;99.90;;;;;;170445;28;1459;-73
2022/04/02 00:03:39;;;;;;;6.60;3.90;;;4.10;99.90;;;;;;170314;29;1569;-73
2022/04/02 00:03:44;;;;;;;6.85;3.90;;;4.10;99.90;;;;;;169749;28;1385;-73
2022/04/02 00:03:50;;;;;;;6.82;3.95;;;4.10;99.90;;;;;;170553;29;895;-72
2022/04/02 00:03:56;;;;;;;6.57;3.90;;;4.20;99.90;;;;;;170424;28;1503;-73
2022/04/02 00:04:02;;;;;;;6.47;3.83;;;4.20;99.90;;;;;;171117;28;1625;-73
2022/04/02 00:04:09;;;;;;;6.50;4.00;;;4.20;99.90;;;;;;171728;28;1228;-73
2022/04/02 00:04:15;;;;;;;6.30;3.97;;;4.20;99.90;;;;;;171717;28;1751;-73
2022/04/02 00:04:20;;;;;;;6.30;3.80;;;4.10;99.90;;;;;;171918;28;867;-73
2022/04/02 00:04:26;;;;;;;6.13;3.65;;;4.20;99.90;;;;;;171843;28;850;-72
2022/04/02 00:04:31;;;;;;;6.20;3.63;;;4.20;99.90;;;;;;171623;28;1360;-73
2022/04/02 00:04:37;;;;;;;6.20;3.43;;;4.20;99.90;;;;;;171245;28;1030;-73
2022/04/02 00:04:42;;;;;;;6.32;3.45;;;4.20;99.90;;;;;;171240;28;1069;-73
2022/04/02 00:04:48;;;;;;;6.80;3.40;;;4.20;99.90;;;;;;171112;28;1181;-73
2022/04/02 00:04:54;;;;;;;6.80;3.45;;;4.20;99.90;;;;;;170430;29;869;-73
2022/04/02 00:04:59;;;;;;;6.50;3.33;;;4.20;99.90;;;;;;170444;29;1091;-73
2022/04/02 00:05:05;;;;;;;6.22;3.45;;;4.20;99.90;;;;;;170390;29;1630;-73
2022/04/02 00:05:11;;;;;;;6.20;3.55;;;4.10;99.90;;;;;;170464;29;951;-73
2022/04/02 00:05:17;;;;;;;5.50;3.53;;;4.20;99.90;;;;;;170558;29;856;-73
2022/04/02 00:05:25;;;;;;;5.30;3.50;;;4.10;99.90;;;;;;170470;29;1241;-73
2022/04/02 00:05:30;;;;;;;5.47;3.57;;;4.20;99.90;;;;;;170604;29;942;-73
2022/04/02 00:05:36;;;;;;;5.53;3.45;;;4.10;99.90;;;;;;171159;28;1056;-73
2022/04/02 00:05:41;;;;;;;5.37;3.43;;;4.10;99.90;;;;;;170483;28;1255;-73
2022/04/02 00:05:47;;;;;;;5.50;3.65;;;4.10;99.90;;;;;;170404;29;1245;-73
2022/04/02 00:05:53;;;;;;;5.97;3.70;;;4.10;99.90;;;;;;170390;28;1530;-73
2022/04/02 00:05:59;;;;;;;6.22;3.80;;;4.10;99.90;;;;;;171358;28;1341;-73
2022/04/02 00:06:04;;;;;;;6.80;4.10;;;4.10;99.90;;;;;;171238;28;792;-73
2022/04/02 00:06:10;;;;;;;6.90;4.10;;;4.10;99.90;;;;;;170159;29;1884;-72
2022/04/02 00:06:16;;;;;;;6.87;4.00;;;4.10;99.90;;;;;;171031;28;1253;-72
2022/04/02 00:06:21;;;;;;;7.18;4.07;;;4.10;99.90;;;;;;170411;29;1325;-73
2022/04/02 00:06:27;;;;;;;7.32;4.10;;;4.10;99.90;;;;;;171152;28;995;-73
2022/04/02 00:06:33;;;;;;;6.77;3.83;;;4.10;99.90;;;;;;171490;28;1676;-73
2022/04/02 00:06:38;;;;;;;6.53;3.78;;;4.10;99.90;;;;;;171083;28;1415;-72
2022/04/02 00:06:44;;;;;;;6.65;3.92;;;4.10;99.90;;;;;;170441;28;1225;-72
2022/04/02 00:06:50;;;;;;;6.57;3.90;;;4.10;99.90;;;;;;170458;28;998;-73
2022/04/02 00:06:55;;;;;;;6.60;3.85;;;4.10;99.90;;;;;;172410;28;1299;-73
2022/04/02 00:07:02;;;;;;;6.85;3.88;;;4.10;99.90;;;;;;171904;28;851;-72
2022/04/02 00:07:07;;;;;;;6.43;3.70;;;4.10;99.90;;;;;;171907;28;864;-72
2022/04/02 00:07:13;;;;;;;6.28;3.78;;;4.10;99.90;;;;;;171200;28;859;-73
2022/04/02 00:07:18;;;;;;;6.03;3.67;;;4.10;99.90;;;;;;171849;28;793;-73
2022/04/02 00:07:24;;;;;;;5.80;3.45;;;4.10;99.90;;;;;;170522;29;944;-73
2022/04/02 00:07:29;;;;;;;5.63;3.43;;;4.10;99.90;;;;;;171761;28;1446;-73
2022/04/02 00:07:35;;;;;;;5.88;3.60;;;4.20;99.90;;;;;;171674;28;1633;-72
2022/04/02 00:07:41;;;;;;;5.88;3.35;;;4.20;99.90;;;;;;171138;28;1222;-73
2022/04/02 00:07:46;;;;;;;6.10;3.40;;;4.10;99.90;;;;;;171070;28;1178;-73
2022/04/02 00:07:52;;;;;;;5.88;3.40;;;4.20;99.90;;;;;;171881;28;824;-73
2022/04/02 00:07:57;;;;;;;5.88;3.50;;;4.20;99.90;;;;;;171733;28;1343;-73
2022/04/02 00:08:04;;;;;;;5.97;3.47;;;4.20;99.90;;;;;;171611;28;1615;-73
2022/04/02 00:08:09;;;;;;;5.93;3.60;;;4.10;99.90;;;;;;171846;28;922;-73
2022/04/02 00:08:15;;;;;;;5.97;3.65;;;4.20;99.90;;;;;;171195;28;817;-73
2022/04/02 00:08:21;;;;;;;6.47;3.83;;;4.20;99.90;;;;;;171146;28;797;-73
2022/04/02 00:08:26;;;;;;;6.68;3.92;;;4.10;99.90;;;;;;171174;28;916;-73
2022/04/02 00:08:32;;;;;;;6.63;3.97;;;4.20;99.90;;;;;;171129;28;1217;-74
2022/04/02 00:08:38;;;;;;;6.78;3.97;;;4.10;99.90;;;;;;171212;28;836;-73
2022/04/02 00:08:43;;;;;;;6.43;3.87;;;4.20;99.90;;;;;;171110;28;1352;-73
2022/04/02 00:08:49;;;;;;;6.38;3.83;;;4.20;99.90;;;;;;171247;28;887;-72
2022/04/02 00:08:55;;;;;;;7.13;3.75;;;4.20;99.90;;;;;;171852;28;985;-73
2022/04/02 00:09:01;;;;;;;7.03;3.70;;;4.20;99.90;;;;;;171918;28;844;-73
2022/04/02 00:09:06;;;;;;;7.38;3.83;;;4.20;99.90;;;;;;171205;28;967;-73
2022/04/02 00:09:12;;;;;;;7.85;3.88;;;4.20;99.90;;;;;;171756;28;1216;-73
2022/04/02 00:09:17;;;;;;;8.03;3.83;;;4.20;99.90;;;;;;171192;28;800;-73
2022/04/02 00:09:23;;;;;;;7.18;3.85;;;4.20;99.90;;;;;;171126;28;1324;-72
2022/04/02 00:09:29;;;;;;;7.50;3.88;;;4.20;99.90;;;;;;171147;28;1066;-73
2022/04/02 00:09:35;;;;;;;7.43;3.80;;;4.20;99.90;;;;;;171131;28;1204;-72
2022/04/02 00:09:40;;;;;;;7.53;3.90;;;4.20;99.90;;;;;;171210;28;907;-73
2022/04/02 00:09:46;;;;;;;7.70;4.05;;;4.20;99.90;;;;;;171563;28;1732;-73
2022/04/02 00:09:51;;;;;;;7.68;3.92;;;4.20;99.90;;;;;;172340;28;1593;-73
2022/04/02 00:09:57;;;;;;;7.27;3.83;;;4.20;99.90;;;;;;172258;28;1199;-73
2022/04/02 00:10:05;;;;;;;7.13;3.85;;;4.20;99.90;;;;;;171897;28;974;-74
2022/04/02 00:10:11;;;;;;;6.75;3.67;;;4.20;99.90;;;;;;171177;28;935;-73
2022/04/02 00:10:16;;;;;;;6.57;3.67;;;4.20;99.90;;;;;;171205;28;864;-73
2022/04/02 00:10:22;;;;;;;6.13;3.60;;;4.20;99.90;;;;;;171210;28;896;-72
2022/04/02 00:10:27;;;;;;;6.10;3.67;;;4.20;99.90;;;;;;170523;28;856;-73
2022/04/02 00:10:33;;;;;;;6.10;3.63;;;4.20;99.90;;;;;;170575;29;805;-73
2022/04/02 00:10:38;;;;;;;6.03;3.65;;;4.20;99.90;;;;;;171697;28;1356;-73
2022/04/02 00:10:44;;;;;;;6.10;3.53;;;4.20;99.90;;;;;;171783;28;1272;-73
2022/04/02 00:10:50;;;;;;;6.65;3.72;;;4.20;99.90;;;;;;171878;28;935;-73
2022/04/02 00:10:56;;;;;;;6.72;3.65;;;4.10;99.90;;;;;;171017;28;1743;-73
2022/04/02 00:11:01;;;;;;;7.23;3.63;;;4.20;99.90;;;;;;171022;28;1540;-73
2022/04/02 00:11:07;;;;;;;7.38;3.75;;;4.20;99.90;;;;;;170495;29;1543;-73
2022/04/02 00:11:13;;;;;;;6.88;3.67;;;4.10;99.90;;;;;;171847;28;1216;-73
2022/04/02 00:11:18;;;;;;;6.37;3.43;;;4.20;99.90;;;;;;170423;28;1196;-73
2022/04/02 00:11:24;;;;;;;6.05;3.30;;;4.10;99.90;;;;;;171158;28;900;-73
2022/04/02 00:11:30;;;;;;;5.87;3.40;;;4.20;99.90;;;;;;171210;28;848;-73
2022/04/02 00:11:35;;;;;;;6.10;3.40;;;4.20;99.90;;;;;;170466;29;1465;-73
2022/04/02 00:11:41;;;;;;;6.43;3.40;;;4.20;99.90;;;;;;171826;28;1208;-74
2022/04/02 00:11:46;;;;;;;7.03;3.60;;;4.20;99.90;;;;;;171816;28;947;-73
2022/04/02 00:11:52;;;;;;;7.45;3.80;;;4.20;99.90;;;;;;171733;28;1216;-73
2022/04/02 00:11:57;;;;;;;7.40;3.80;;;4.20;99.90;;;;;;171076;28;1229;-73
2022/04/02 00:12:03;;;;;;;6.95;3.72;;;4.20;99.90;;;;;;170464;28;1243;-73
2022/04/02 00:12:09;;;;;;;7.13;3.83;;;4.20;99.90;;;;;;171160;28;860;-73
2022/04/02 00:12:15;;;;;;;6.72;3.83;;;4.20;99.90;;;;;;171822;28;1041;-73
2022/04/02 00:12:20;;;;;;;6.53;3.80;;;4.20;99.90;;;;;;172503;28;1606;-73
2022/04/02 00:12:26;;;;;;;6.40;3.72;;;4.20;99.90;;;;;;172473;28;911;-73
2022/04/02 00:12:32;;;;;;;6.75;3.75;;;4.20;99.90;;;;;;171902;28;824;-73
2022/04/02 00:12:39;;;;;;;6.40;3.70;;;4.20;99.90;;;;;;171117;28;1294;-73
2022/04/02 00:12:45;;;;;;;5.95;3.53;;;4.20;99.90;;;;;;171146;28;1199;-73
2022/04/02 00:12:53;;;;;;;6.14;3.56;;;4.20;99.90;;;;;;171232;28;1079;-74
2022/04/02 00:12:59;;;;;;;6.17;3.77;;;4.20;99.90;;;;;;171086;28;1398;-74
2022/04/02 00:13:04;;;;;;;6.60;3.80;;;4.20;99.90;;;;;;171112;28;825;-73
2022/04/02 00:13:10;;;;;;;7.07;3.83;;;4.20;99.90;;;;;;171130;28;1314;-73
2022/04/02 00:13:15;;;;;;;7.40;3.93;;;4.20;99.90;;;;;;171838;28;852;-73
2022/04/02 00:13:22;;;;;;;6.70;3.80;;;4.20;99.90;;;;;;172486;28;1208;-73
2022/04/02 00:13:27;;;;;;;6.37;3.60;;;4.20;99.90;;;;;;172544;28;868;-73
2022/04/02 00:13:34;;;;;;;6.32;3.47;;;4.20;99.90;;;;;;171571;28;1260;-73
2022/04/02 00:13:40;;;;;;;6.23;3.50;;;4.20;99.90;;;;;;171822;28;1430;-73
2022/04/02 00:13:45;;;;;;;6.10;3.50;;;4.20;99.90;;;;;;172495;28;1449;-73
2022/04/02 00:13:51;;;;;;;6.30;3.60;;;4.20;99.90;;;;;;171832;28;1219;-73
2022/04/02 00:13:58;;;;;;;6.43;3.57;;;4.20;99.90;;;;;;171778;28;1036;-73
2022/04/02 00:14:03;;;;;;;7.03;3.60;;;4.20;99.90;;;;;;171729;28;1565;-73
2022/04/02 00:14:09;;;;;;;7.23;3.53;;;4.20;99.90;;;;;;172435;28;1188;-73
2022/04/02 00:14:15;;;;;;;7.23;3.53;;;4.20;99.90;;;;;;171144;28;1270;-72
2022/04/02 00:14:20;;;;;;;7.20;3.50;;;4.20;99.90;;;;;;171866;28;958;-73
2022/04/02 00:14:26;;;;;;;7.78;3.72;;;4.20;99.90;;;;;;171240;28;820;-73
2022/04/02 00:14:31;;;;;;;7.97;3.93;;;4.20;99.90;;;;;;171145;28;1232;-73
2022/04/02 00:14:37;;;;;;;6.88;4.18;;;4.20;99.90;;;;;;172447;28;1380;-74
2022/04/02 00:14:43;;;;;;;8.15;4.35;;;4.20;99.90;;;;;;172480;28;1334;-73
2022/04/02 00:14:48;;;;;;;8.53;4.50;;;4.20;99.90;;;;;;172450;28;827;-73
2022/04/02 00:14:54;;;;;;;8.18;4.35;;;4.20;99.90;;;;;;171821;28;898;-73
2022/04/02 00:15:00;;;;;;;7.93;4.10;;;4.20;99.90;;;;;;171084;28;1370;-73
2022/04/02 00:15:06;;;;;;;7.83;3.80;;;4.20;99.90;;;;;;170220;28;1212;-73
2022/04/02 00:15:11;;;;;;;6.90;3.60;;;4.20;99.90;;;;;;171219;28;899;-72
2022/04/02 00:15:17;;;;;;;6.63;3.50;;;4.20;99.90;;;;;;171105;28;1216;-73
2022/04/02 00:15:23;;;;;;;6.45;3.50;;;4.20;99.90;;;;;;171154;28;985;-73
2022/04/02 00:15:29;;;;;;;6.88;3.53;;;4.20;99.90;;;;;;171191;28;1069;-73
2022/04/02 00:15:34;;;;;;;6.57;3.50;;;4.20;99.90;;;;;;171056;28;1221;-73
2022/04/02 00:15:40;;;;;;;6.63;3.63;;;4.20;99.90;;;;;;170514;29;845;-73
2022/04/02 00:15:46;;;;;;;6.63;3.63;;;4.20;99.90;;;;;;171204;28;904;-73
2022/04/02 00:15:51;;;;;;;6.88;3.63;;;4.20;99.90;;;;;;171159;28;1023;-73
2022/04/02 00:15:58;;;;;;;6.57;3.60;;;4.20;99.90;;;;;;171629;28;1514;-74
2022/04/02 00:16:04;;;;;;;6.87;3.70;;;4.20;99.90;;;;;;171247;28;1516;-73
2022/04/02 00:16:10;;;;;;;7.06;3.74;;;4.20;99.90;;;;;;171046;28;1507;-73
2022/04/02 00:16:15;;;;;;;6.82;3.67;;;4.20;99.90;;;;;;170407;28;1373;-73
2022/04/02 00:16:21;;;;;;;6.70;3.70;;;4.20;99.90;;;;;;170569;29;825;-73
2022/04/02 00:16:27;;;;;;;6.55;3.80;;;4.20;99.90;;;;;;170431;29;1233;-73
2022/04/02 00:16:33;;;;;;;6.40;3.63;;;4.20;99.90;;;;;;171057;28;1521;-73
2022/04/02 00:16:38;;;;;;;5.97;3.45;;;4.20;99.90;;;;;;171070;28;1291;-73
2022/04/02 00:16:44;;;;;;;6.37;3.50;;;4.20;99.90;;;;;;171190;28;947;-73
2022/04/02 00:16:50;;;;;;;6.55;3.58;;;4.20;99.90;;;;;;171066;28;1242;-73
2022/04/02 00:16:56;;;;;;;7.10;3.67;;;4.20;99.90;;;;;;171056;28;1181;-73
2022/04/02 00:17:01;;;;;;;7.68;3.75;;;4.20;99.90;;;;;;171116;28;1282;-73
2022/04/02 00:17:07;;;;;;;8.05;3.88;;;4.20;99.90;;;;;;170997;28;2665;-73
2022/04/02 00:17:13;;;;;;;7.55;3.85;;;4.20;99.90;;;;;;171863;28;813;-73
2022/04/02 00:17:18;;;;;;;7.33;3.70;;;4.20;99.90;;;;;;171149;28;828;-72
2022/04/02 00:17:24;;;;;;;7.07;3.50;;;4.20;99.90;;;;;;171171;28;927;-73
2022/04/02 00:17:29;;;;;;;7.13;3.38;;;4.20;99.90;;;;;;171223;28;797;-73
2022/04/02 00:17:35;;;;;;;6.77;3.37;;;4.20;99.90;;;;;;171098;28;1391;-73
2022/04/02 00:17:41;;;;;;;6.53;3.30;;;4.20;99.90;;;;;;171199;28;927;-73
2022/04/02 00:17:46;;;;;;;6.88;3.40;;;4.20;99.90;;;;;;170401;29;1409;-73
2022/04/02 00:17:52;;;;;;;7.07;3.50;;;4.20;99.90;;;;;;171180;28;1324;-73
2022/04/02 00:17:58;;;;;;;6.35;3.50;;;4.20;99.90;;;;;;170611;29;813;-73
2022/04/02 00:18:03;;;;;;;6.47;3.57;;;4.20;99.90;;;;;;171164;28;825;-74
2022/04/02 00:18:10;;;;;;;7.57;3.60;;;4.20;99.90;;;;;;170408;28;1331;-73
2022/04/02 00:18:15;;;;;;;7.43;3.50;;;4.20;99.90;;;;;;171156;28;958;-73
2022/04/02 00:18:21;;;;;;;7.57;3.67;;;4.20;99.90;;;;;;171080;28;1923;-72
2022/04/02 00:18:29;;;;;;;7.30;3.67;;;4.20;99.90;;;;;;171084;28;1228;-73
2022/04/02 00:18:35;;;;;;;7.27;3.72;;;4.20;99.90;;;;;;171760;28;1053;-73
2022/04/02 00:18:42;;;;;;;6.28;3.70;;;4.20;99.90;;;;;;170992;28;1499;-73
2022/04/02 00:18:49;;;;;;;5.93;3.57;;;4.20;99.90;;;;;;171093;28;1535;-73
2022/04/02 00:18:54;;;;;;;6.04;3.52;;;4.20;99.90;;;;;;171110;28;1529;-73
2022/04/02 00:19:00;;;;;;;5.73;3.43;;;4.30;99.90;;;;;;170512;29;1319;-73
2022/04/02 00:19:07;;;;;;;5.72;3.40;;;4.20;99.90;;;;;;171237;28;1653;-73
2022/04/02 00:19:13;;;;;;;6.30;3.52;;;4.20;99.90;;;;;;171203;28;891;-73
2022/04/02 00:19:20;;;;;;;6.63;3.60;;;4.20;99.90;;;;;;172434;28;974;-73
2022/04/02 00:19:26;;;;;;;6.70;3.70;;;4.20;99.90;;;;;;171864;28;954;-73
2022/04/02 00:19:31;;;;;;;6.83;3.80;;;4.20;99.90;;;;;;171787;28;1252;-73
2022/04/02 00:19:37;;;;;;;7.20;3.78;;;4.20;99.90;;;;;;172446;28;1224;-73
2022/04/02 00:19:43;;;;;;;6.55;3.70;;;4.30;99.90;;;;;;172605;28;816;-73
2022/04/02 00:19:48;;;;;;;6.60;3.87;;;4.20;99.90;;;;;;171831;28;852;-73
2022/04/02 00:19:54;;;;;;;6.15;3.70;;;4.30;99.90;;;;;;171714;28;1392;-73
2022/04/02 00:19:59;;;;;;;5.97;3.60;;;4.20;99.90;;;;;;172548;28;781;-74
2022/04/02 00:20:05;;;;;;;5.88;3.70;;;4.20;99.90;;;;;;171751;28;1238;-73
2022/04/02 00:20:11;;;;;;;5.90;3.97;;;4.20;99.90;;;;;;172448;28;1438;-73
2022/04/02 00:20:17;;;;;;;5.72;3.75;;;4.30;99.90;;;;;;171730;28;1212;-73
2022/04/02 00:20:23;;;;;;;6.20;3.78;;;4.20;99.90;;;;;;171914;28;887;-73
2022/04/02 00:20:28;;;;;;;6.33;3.77;;;4.20;99.90;;;;;;171053;28;1425;-73
2022/04/02 00:20:34;;;;;;;6.13;3.55;;;4.20;99.90;;;;;;171122;28;1350;-73
2022/04/02 00:20:39;;;;;;;6.00;3.38;;;4.20;99.90;;;;;;171228;28;823;-73
2022/04/02 00:20:45;;;;;;;6.37;3.50;;;4.20;99.90;;;;;;171821;28;1340;-73
2022/04/02 00:20:51;;;;;;;6.60;3.70;;;4.20;99.90;;;;;;171905;28;924;-73
2022/04/02 00:20:57;;;;;;;7.00;3.75;;;4.20;99.90;;;;;;173099;28;1251;-73
2022/04/02 00:21:03;;;;;;;7.40;3.95;;;4.30;99.90;;;;;;171385;28;1269;-73
2022/04/02 00:21:09;;;;;;;7.55;4.00;;;4.20;99.90;;;;;;171855;28;906;-73
2022/04/02 00:21:15;;;;;;;7.00;3.90;;;4.30;99.90;;;;;;172581;28;856;-73
2022/04/02 00:21:21;;;;;;;6.45;3.72;;;4.30;99.90;;;;;;172547;28;855;-73
2022/04/02 00:21:26;;;;;;;6.23;3.77;;;4.30;99.90;;;;;;172418;28;1324;-73
2022/04/02 00:21:32;;;;;;;5.97;3.70;;;4.30;99.90;;;;;;171887;28;946;-73
2022/04/02 00:21:38;;;;;;;6.47;3.78;;;4.30;99.90;;;;;;171698;28;1216;-73
2022/04/02 00:21:44;;;;;;;7.00;4.00;;;4.30;99.90;;;;;;171773;28;891;-73
2022/04/02 00:21:49;;;;;;;6.93;3.93;;;4.30;99.90;;;;;;171905;28;927;-73
2022/04/02 00:21:55;;;;;;;6.80;3.80;;;4.30;99.90;;;;;;171153;28;860;-73
2022/04/02 00:22:00;;;;;;;6.65;3.80;;;4.30;99.90;;;;;;171096;28;1261;-73
2022/04/02 00:22:06;;;;;;;6.07;3.67;;;4.20;99.90;;;;;;171089;28;1396;-73
2022/04/02 00:22:11;;;;;;;5.68;3.45;;;4.20;99.90;;;;;;170597;28;979;-73
2022/04/02 00:22:17;;;;;;;5.80;3.57;;;4.30;99.90;;;;;;171480;28;1521;-73
2022/04/02 00:22:23;;;;;;;5.85;3.65;;;4.30;99.90;;;;;;170495;29;844;-73
2022/04/02 00:22:28;;;;;;;5.55;3.45;;;4.30;99.90;;;;;;170384;28;1500;-73
2022/04/02 00:22:34;;;;;;;5.57;3.50;;;4.30;99.90;;;;;;170529;29;813;-73
2022/04/02 00:23:35;;;;;;;5.53;3.38;;;4.30;99.90;;;;;;170401;29;1282;-72
2022/04/02 00:23:43;;;;;;;6.61;3.41;;;4.30;99.90;;;;;;171117;28;1183;-73
2022/04/02 00:23:49;;;;;;;5.85;3.42;;;4.30;99.90;;;;;;170563;29;1183;-73
2022/04/02 00:23:54;;;;;;;5.00;3.17;;;4.30;99.90;;;;;;170506;29;888;-73
2022/04/02 00:24:00;;;;;;;5.05;3.13;;;4.30;99.90;;;;;;170410;28;1190;-73
2022/04/02 00:24:07;;;;;;;5.13;3.33;;;4.30;99.90;;;;;;169798;29;872;-73
2022/04/02 00:24:13;;;;;;;5.56;3.38;;;4.30;99.90;;;;;;171112;28;1327;-73
2022/04/02 00:24:19;;;;;;;6.50;3.70;;;4.30;99.90;;;;;;171173;28;1378;-73
2022/04/02 00:24:24;;;;;;;6.57;3.80;;;4.30;99.90;;;;;;171001;28;1404;-73
2022/04/02 00:24:30;;;;;;;6.68;3.78;;;4.30;99.90;;;;;;170982;28;1254;-73
2022/04/02 00:24:35;;;;;;;6.63;3.60;;;4.30;99.90;;;;;;171241;28;836;-73
2022/04/02 00:24:41;;;;;;;6.70;3.60;;;4.30;99.90;;;;;;170505;29;1229;-73
2022/04/02 00:24:47;;;;;;;6.20;3.35;;;4.30;99.90;;;;;;171078;28;1481;-73
2022/04/02 00:24:52;;;;;;;6.20;3.30;;;4.30;99.90;;;;;;171227;28;804;-73
2022/04/02 00:24:58;;;;;;;6.03;3.30;;;4.30;99.90;;;;;;171127;28;882;-74
2022/04/02 00:25:04;;;;;;;5.97;3.38;;;4.30;99.90;;;;;;171847;28;959;-73
2022/04/02 00:25:09;;;;;;;5.73;3.37;;;4.30;99.90;;;;;;171143;28;1299;-73
2022/04/02 00:25:18;;;;;;;5.57;3.40;;;4.30;99.90;;;;;;170481;28;1050;-73
2022/04/02 00:25:23;;;;;;;6.27;3.47;;;4.30;99.90;;;;;;171075;28;1297;-72
2022/04/02 00:25:30;;;;;;;6.53;3.57;;;4.30;99.90;;;;;;171113;28;1469;-73
2022/04/02 00:25:35;;;;;;;6.58;3.60;;;4.30;99.90;;;;;;171136;28;955;-73
2022/04/02 00:25:41;;;;;;;6.53;3.63;;;4.30;99.90;;;;;;171182;28;1184;-73
2022/04/02 00:25:47;;;;;;;6.63;3.78;;;4.30;99.90;;;;;;171155;28;1030;-72
2022/04/02 00:25:52;;;;;;;6.23;3.80;;;4.30;99.90;;;;;;171151;28;998;-72
2022/04/02 00:25:58;;;;;;;6.28;3.75;;;4.30;99.90;;;;;;171702;28;1425;-73
2022/04/02 00:26:04;;;;;;;6.17;3.77;;;4.30;99.90;;;;;;170987;28;1514;-73
2022/04/02 00:26:13;;;;;;;6.53;3.93;;;4.30;99.90;;;;;;171907;28;903;-73
2022/04/02 00:26:20;;;;;;;6.50;3.80;;;4.30;99.90;;;;;;171694;28;1504;-72
2022/04/02 00:26:26;;;;;;;6.83;3.93;;;4.30;99.90;;;;;;171116;28;1213;-73
2022/04/02 00:26:32;;;;;;;6.70;3.80;;;4.30;99.90;;;;;;171747;28;1423;-73
2022/04/02 00:26:37;;;;;;;6.60;3.58;;;4.30;99.90;;;;;;171843;28;793;-73
2022/04/02 00:26:43;;;;;;;6.57;3.70;;;4.30;99.90;;;;;;171703;28;1372;-73
2022/04/02 00:26:48;;;;;;;6.35;3.63;;;4.30;99.90;;;;;;170528;29;849;-73
2022/04/02 00:26:54;;;;;;;6.07;3.60;;;4.30;99.90;;;;;;171134;28;1301;-73
2022/04/02 00:27:00;;;;;;;6.55;3.67;;;4.30;99.90;;;;;;171171;28;966;-73
2022/04/02 00:27:05;;;;;;;6.73;3.80;;;4.30;99.90;;;;;;170944;28;1690;-73
2022/04/02 00:27:11;;;;;;;6.82;3.78;;;4.30;99.90;;;;;;171078;28;1520;-73
2022/04/02 00:27:17;;;;;;;6.70;3.70;;;4.30;99.90;;;;;;171195;28;879;-72
2022/04/02 00:27:22;;;;;;;7.00;3.80;;;4.30;99.90;;;;;;171108;28;1221;-73
2022/04/02 00:27:28;;;;;;;6.85;3.80;;;4.30;99.90;;;;;;171201;28;828;-73
2022/04/02 00:27:34;;;;;;;6.38;3.70;;;4.30;99.90;;;;;;172438;28;1346;-73
2022/04/02 00:27:39;;;;;;;6.17;3.60;;;4.30;99.90;;;;;;172593;28;871;-73
2022/04/02 00:27:45;;;;;;;6.07;3.55;;;4.30;99.90;;;;;;172502;28;1066;-73
2022/04/02 00:27:50;;;;;;;5.90;3.47;;;4.30;99.90;;;;;;171076;28;1212;-73
2022/04/02 00:27:56;;;;;;;5.47;3.28;;;4.30;99.90;;;;;;171773;28;1258;-73
2022/04/02 00:28:01;;;;;;;5.57;3.40;;;4.30;99.90;;;;;;171920;28;990;-72
2022/04/02 00:28:07;;;;;;;5.93;3.58;;;4.30;99.90;;;;;;171553;28;1799;-73
2022/04/02 00:28:13;;;;;;;6.38;3.70;;;4.30;99.90;;;;;;171770;28;793;-73
2022/04/02 00:28:18;;;;;;;6.73;3.77;;;4.30;99.90;;;;;;172523;28;1221;-73
2022/04/02 00:28:24;;;;;;;7.35;3.92;;;4.30;99.90;;;;;;171170;28;1691;-72
2022/04/02 00:28:30;;;;;;;7.45;3.95;;;4.30;99.90;;;;;;171091;28;1503;-73
2022/04/02 00:28:36;;;;;;;7.37;3.80;;;4.30;99.90;;;;;;171840;28;880;-73
2022/04/02 00:28:43;;;;;;;7.18;3.80;;;4.30;99.90;;;;;;171831;28;849;-73
2022/04/02 00:28:49;;;;;;;6.97;3.80;;;4.30;99.90;;;;;;172452;28;1523;-72
2022/04/02 00:28:55;;;;;;;6.82;3.84;;;4.30;99.90;;;;;;171850;28;899;-73
2022/04/02 00:29:01;;;;;;;6.82;3.78;;;4.30;99.90;;;;;;171015;28;1175;-73
2022/04/02 00:29:10;;;;;;;7.30;3.92;;;4.30;99.90;;;;;;171800;28;1322;-73
2022/04/02 00:29:16;;;;;;;7.67;4.10;;;4.30;99.90;;;;;;171759;28;1350;-73
2022/04/02 00:29:22;;;;;;;8.48;4.13;;;4.30;99.90;;;;;;170470;28;1432;-73
2022/04/02 00:29:27;;;;;;;8.60;4.13;;;4.30;99.90;;;;;;171047;28;1192;-73
2022/04/02 00:29:34;;;;;;;8.55;4.05;;;4.30;99.90;;;;;;171824;28;1386;-73
2022/04/02 00:29:41;;;;;;;8.15;3.88;;;4.30;99.90;;;;;;171109;28;1479;-73
2022/04/02 00:29:46;;;;;;;8.25;3.93;;;4.30;99.90;;;;;;171237;28;926;-73
2022/04/02 00:29:52;;;;;;;8.13;3.97;;;4.30;99.90;;;;;;171818;28;1332;-72
2022/04/02 00:29:57;;;;;;;8.02;4.00;;;4.30;99.90;;;;;;171094;28;1331;-73
2022/04/02 00:30:03;;;;;;;8.10;4.10;;;4.30;99.90;;;;;;171228;28;875;-72
2022/04/02 00:30:09;;;;;;;8.15;4.13;;;4.30;99.90;;;;;;171014;28;1132;-73
2022/04/02 00:30:16;;;;;;;7.82;3.90;;;4.30;99.90;;;;;;171775;28;1338;-73
2022/04/02 00:30:21;;;;;;;7.67;3.87;;;4.30;99.90;;;;;;171230;28;894;-73
2022/04/02 00:30:27;;;;;;;7.40;3.75;;;4.30;99.90;;;;;;171652;28;1185;-73
2022/04/02 00:30:32;;;;;;;7.65;3.58;;;4.30;99.90;;;;;;171155;28;1268;-73
2022/04/02 00:30:40;;;;;;;7.47;3.47;;;4.30;99.90;;;;;;171764;28;1206;-73
2022/04/02 00:30:46;;;;;;;7.30;3.40;;;4.30;99.90;;;;;;171077;28;1550;-73
2022/04/02 00:30:51;;;;;;;6.63;3.23;;;4.30;99.90;;;;;;171260;28;868;-73
2022/04/02 00:30:57;;;;;;;6.32;3.13;;;4.30;99.90;;;;;;171943;28;793;-72
2022/04/02 00:31:04;;;;;;;5.93;3.13;;;4.30;99.90;;;;;;171498;28;1574;-73
2022/04/02 00:31:12;;;;;;;6.57;3.20;;;4.30;99.90;;;;;;171294;28;1003;-72
2022/04/02 00:31:18;;;;;;;6.86;3.31;;;4.30;99.90;;;;;;171825;28;1042;-73
2022/04/02 00:31:24;;;;;;;7.30;3.60;;;4.30;99.90;;;;;;170959;28;1578;-73
2022/04/02 00:31:31;;;;;;;7.30;3.67;;;4.30;99.90;;;;;;171256;28;852;-73
2022/04/02 00:31:37;;;;;;;6.53;3.70;;;4.30;99.90;;;;;;171836;28;1192;-73
2022/04/02 00:31:43;;;;;;;5.82;3.65;;;4.30;99.90;;;;;;171056;28;1189;-73
2022/04/02 00:31:48;;;;;;;5.65;3.42;;;4.30;99.90;;;;;;170415;28;1256;-73
2022/04/02 00:31:54;;;;;;;5.67;3.37;;;4.30;99.90;;;;;;170571;28;1006;-73
2022/04/02 00:32:00;;;;;;;5.82;3.40;;;4.30;99.90;;;;;;170510;28;1236;-73
2022/04/02 00:32:06;;;;;;;5.68;3.30;;;4.30;99.90;;;;;;172442;28;1512;-73
2022/04/02 00:32:12;;;;;;;6.13;3.27;;;4.30;99.90;;;;;;171848;28;991;-73
2022/04/02 00:32:18;;;;;;;6.60;3.40;;;4.30;99.90;;;;;;171783;28;1366;-73
2022/04/02 00:32:23;;;;;;;6.30;3.40;;;4.30;99.90;;;;;;171818;28;1189;-73
2022/04/02 00:32:29;;;;;;;6.17;3.40;;;4.30;99.90;;;;;;171215;28;974;-73
2022/04/02 00:32:35;;;;;;;6.57;3.67;;;4.30;99.90;;;;;;171093;28;1345;-73
2022/04/02 00:32:40;;;;;;;7.20;3.60;;;4.30;99.90;;;;;;171901;28;883;-72
2022/04/02 00:32:46;;;;;;;6.45;3.50;;;4.30;99.90;;;;;;172435;28;1319;-73
2022/04/02 00:32:51;;;;;;;6.57;3.53;;;4.30;99.90;;;;;;171100;28;1074;-72